createdAt,value
2022-09-23T00:06:21.365Z,6.1
2022-09-23T00:16:23.197Z,6.1
2022-09-23T00:26:25.031Z,6.1
2022-09-23T00:36:27.355Z,6.1
2022-09-23T00:46:29.804Z,6.1
2022-09-23T00:56:32.241Z,6.3
2022-09-23T01:06:34.397Z,6.3
2022-09-23T01:16:36.380Z,6.3
2022-09-23T01:26:38.899Z,6.3
2022-09-23T01:36:40.601Z,6.4
2022-09-23T01:46:42.488Z,6.4
2022-09-23T01:56:44.368Z,6.3
2022-09-23T02:06:46.499Z,6.2
2022-09-23T02:16:48.374Z,6.2
2022-09-23T02:26:50.842Z,6.2
2022-09-23T02:46:55.376Z,6.2
2022-09-23T02:56:57.658Z,6.1
2022-09-23T03:07:00.280Z,6.1
2022-09-23T03:17:01.967Z,6
2022-09-23T03:27:04.209Z,6
2022-09-23T03:37:06.444Z,5.9
2022-09-23T03:47:08.789Z,5.9
2022-09-23T03:57:10.887Z,5.9
2022-09-23T04:07:12.895Z,5.7
2022-09-23T04:17:14.756Z,5.5
2022-09-23T04:27:16.636Z,5.5
2022-09-23T04:37:18.487Z,5.4
2022-09-23T04:47:20.741Z,5.3
2022-09-23T04:57:22.632Z,5.2
2022-09-23T05:07:24.791Z,5.3
2022-09-23T05:17:26.782Z,5.2
2022-09-23T05:27:28.673Z,5.1
2022-09-23T05:37:30.737Z,5.1
2022-09-23T05:47:32.431Z,5.2
2022-09-23T05:57:34.957Z,5.4
2022-09-23T06:07:36.938Z,5.7
2022-09-23T06:17:39.296Z,5.9
2022-09-23T06:27:41.226Z,6.3
2022-09-23T06:37:43.299Z,7.5
2022-09-23T06:47:45.924Z,8.4
2022-09-23T06:57:48.164Z,9.9
2022-09-23T07:07:50.694Z,11.1
2022-09-23T07:17:52.519Z,11.3
2022-09-23T07:27:54.328Z,11.7
2022-09-23T07:37:56.916Z,11.8
2022-09-23T07:58:00.860Z,12.3
2022-09-23T08:18:04.900Z,13.4
2022-09-23T08:38:09.363Z,13.6
2022-09-23T08:48:13.069Z,13.6
2022-09-23T08:58:24.765Z,13.8
2022-09-23T09:08:16.679Z,14.2
2022-09-23T09:18:18.873Z,14.6
2022-09-23T09:28:21.145Z,15
2022-09-23T09:48:25.409Z,15.4
2022-09-23T09:58:27.239Z,16
2022-09-23T10:08:28.999Z,15.8
2022-09-23T10:18:31.278Z,16
2022-09-23T10:28:33.283Z,15.8
2022-09-23T10:38:34.999Z,15.9
2022-09-23T10:48:36.953Z,16
2022-09-23T10:58:39.571Z,16.3
2022-09-23T11:08:42.022Z,16.3
2022-09-23T11:18:44.483Z,16.6
2022-09-23T11:28:46.422Z,16.8
2022-09-23T11:38:48.380Z,17
2022-09-23T11:58:55.063Z,17.3
2022-09-23T12:08:55.809Z,17.3
2022-09-23T12:18:57.716Z,17.7
2022-09-23T12:39:02.540Z,17.7
2022-09-23T12:59:07.208Z,17.7
2022-09-23T13:09:08.972Z,17.5
2022-09-23T13:19:10.733Z,17.6
2022-09-23T13:29:12.499Z,17.6
2022-09-23T13:59:19.363Z,17.6
2022-09-23T14:09:21.841Z,17.8
2022-09-23T14:19:24.256Z,17.8
2022-09-23T14:29:26.362Z,17.5
2022-09-23T14:39:28.750Z,17.6
2022-09-23T14:49:31.005Z,17.4
2022-09-23T14:59:33.022Z,17.2
2022-09-23T15:09:34.949Z,17
2022-09-23T15:19:37.383Z,16.9
2022-09-23T15:29:39.472Z,16.7
2022-09-23T15:39:41.474Z,16.7
2022-09-23T15:49:43.833Z,16.6
2022-09-23T15:59:45.696Z,16.4
2022-09-23T16:09:47.441Z,16.2
2022-09-23T16:19:49.405Z,16.1
2022-09-23T16:29:51.102Z,15.8
2022-09-23T16:39:53.503Z,15.6
2022-09-23T16:49:55.360Z,15.4
2022-09-23T16:59:57.630Z,15.2
2022-09-23T17:40:06.277Z,13.8
2022-09-23T17:50:07.936Z,13.7
2022-09-23T18:10:12.530Z,13
2022-09-23T18:20:14.211Z,13
2022-09-23T18:30:16.570Z,12.8
2022-09-23T18:40:18.512Z,12.8
2022-09-23T18:50:21.051Z,12.7
2022-09-23T19:00:23.177Z,12.7
2022-09-23T19:10:25.062Z,12.6
2022-09-23T19:20:26.825Z,12.5
2022-09-23T19:30:28.995Z,12.4
2022-09-23T19:50:32.886Z,12.3
2022-09-23T20:10:36.749Z,12.2
2022-09-23T20:20:39.127Z,12.1
2022-09-23T20:40:43.037Z,12
2022-09-23T21:00:46.392Z,12
2022-09-23T21:10:48.573Z,12
2022-09-23T21:20:50.600Z,11.9
2022-09-23T21:30:52.348Z,11.9
2022-09-23T21:40:54.834Z,11.9
2022-09-23T21:50:56.516Z,11.8
2022-09-23T22:00:58.507Z,11.8
2022-09-23T22:11:00.622Z,11.7
2022-09-23T22:21:02.959Z,11.8
2022-09-23T22:31:04.867Z,11.7
2022-09-23T22:41:06.654Z,11.7
2022-09-23T22:51:08.819Z,11.7
2022-09-23T23:01:10.618Z,11.7
2022-09-23T23:11:13.130Z,11.6
2022-09-23T23:21:15.713Z,11.7
2022-09-23T23:31:17.600Z,11.8
2022-09-23T23:41:20.097Z,11.8
